sensor_id;sensor_type;location;lat;lon;timestamp;P1;durP1;ratioP1;P2;durP2;ratioP2
13712;SDS011;6928;50.546;7.120;2024-03-08T00:02:07;13.57;;;8.50;;
13712;SDS011;6928;50.546;7.120;2024-03-08T00:04:33;16.55;;;9.18;;
13712;SDS011;6928;50.546;7.120;2024-03-08T00:07:00;13.45;;;7.80;;
13712;SDS011;6928;50.546;7.120;2024-03-08T00:09:27;13.15;;;8.88;;
13712;SDS011;6928;50.546;7.120;2024-03-08T00:11:55;15.57;;;8.48;;
13712;SDS011;6928;50.546;7.120;2024-03-08T00:14:22;14.05;;;7.78;;
13712;SDS011;6928;50.546;7.120;2024-03-08T00:16:49;14.52;;;8.98;;
13712;SDS011;6928;50.546;7.120;2024-03-08T00:19:19;17.35;;;7.75;;
13712;SDS011;6928;50.546;7.120;2024-03-08T00:21:46;11.93;;;7.32;;
13712;SDS011;6928;50.546;7.120;2024-03-08T00:24:12;12.88;;;7.80;;
13712;SDS011;6928;50.546;7.120;2024-03-08T00:26:39;12.95;;;7.55;;
13712;SDS011;6928;50.546;7.120;2024-03-08T00:29:07;12.63;;;8.38;;
13712;SDS011;6928;50.546;7.120;2024-03-08T00:31:33;13.98;;;8.02;;
13712;SDS011;6928;50.546;7.120;2024-03-08T00:34:00;12.82;;;7.55;;
13712;SDS011;6928;50.546;7.120;2024-03-08T00:36:28;12.38;;;8.25;;
13712;SDS011;6928;50.546;7.120;2024-03-08T00:38:56;15.98;;;8.45;;
13712;SDS011;6928;50.546;7.120;2024-03-08T00:41:25;12.73;;;8.00;;
13712;SDS011;6928;50.546;7.120;2024-03-08T00:43:52;13.73;;;7.93;;
13712;SDS011;6928;50.546;7.120;2024-03-08T00:46:18;13.32;;;8.25;;
13712;SDS011;6928;50.546;7.120;2024-03-08T00:48:45;13.68;;;8.75;;
13712;SDS011;6928;50.546;7.120;2024-03-08T00:51:12;15.18;;;8.00;;
13712;SDS011;6928;50.546;7.120;2024-03-08T00:53:41;15.32;;;7.88;;
13712;SDS011;6928;50.546;7.120;2024-03-08T00:56:11;12.23;;;8.00;;
13712;SDS011;6928;50.546;7.120;2024-03-08T00:58:38;14.05;;;7.97;;
13712;SDS011;6928;50.546;7.120;2024-03-08T01:01:05;17.77;;;8.30;;
13712;SDS011;6928;50.546;7.120;2024-03-08T01:03:31;12.52;;;8.18;;
13712;SDS011;6928;50.546;7.120;2024-03-08T01:05:59;14.77;;;8.50;;
13712;SDS011;6928;50.546;7.120;2024-03-08T01:08:26;14.70;;;7.65;;
13712;SDS011;6928;50.546;7.120;2024-03-08T01:10:55;15.88;;;8.27;;
13712;SDS011;6928;50.546;7.120;2024-03-08T01:13:21;11.55;;;7.88;;
13712;SDS011;6928;50.546;7.120;2024-03-08T01:15:48;17.58;;;7.30;;
13712;SDS011;6928;50.546;7.120;2024-03-08T01:18:15;11.75;;;7.63;;
13712;SDS011;6928;50.546;7.120;2024-03-08T01:20:42;12.95;;;8.48;;
13712;SDS011;6928;50.546;7.120;2024-03-08T01:23:08;13.98;;;9.13;;
13712;SDS011;6928;50.546;7.120;2024-03-08T01:25:35;12.93;;;8.10;;
13712;SDS011;6928;50.546;7.120;2024-03-08T01:28:04;13.27;;;8.15;;
13712;SDS011;6928;50.546;7.120;2024-03-08T01:30:31;12.63;;;7.65;;
13712;SDS011;6928;50.546;7.120;2024-03-08T01:33:00;12.70;;;7.75;;
13712;SDS011;6928;50.546;7.120;2024-03-08T01:35:27;14.82;;;8.38;;
13712;SDS011;6928;50.546;7.120;2024-03-08T01:37:54;13.88;;;8.05;;
13712;SDS011;6928;50.546;7.120;2024-03-08T01:40:21;15.82;;;7.78;;
13712;SDS011;6928;50.546;7.120;2024-03-08T01:42:48;15.82;;;7.90;;
13712;SDS011;6928;50.546;7.120;2024-03-08T01:45:16;20.88;;;8.60;;
13712;SDS011;6928;50.546;7.120;2024-03-08T01:47:42;11.50;;;7.10;;
13712;SDS011;6928;50.546;7.120;2024-03-08T01:50:12;13.27;;;7.60;;
13712;SDS011;6928;50.546;7.120;2024-03-08T01:52:41;15.70;;;8.43;;
13712;SDS011;6928;50.546;7.120;2024-03-08T01:55:08;17.30;;;8.57;;
13712;SDS011;6928;50.546;7.120;2024-03-08T01:57:35;12.20;;;7.40;;
13712;SDS011;6928;50.546;7.120;2024-03-08T02:00:03;14.35;;;8.57;;
13712;SDS011;6928;50.546;7.120;2024-03-08T02:02:36;12.40;;;7.75;;
13712;SDS011;6928;50.546;7.120;2024-03-08T02:05:03;15.60;;;8.50;;
13712;SDS011;6928;50.546;7.120;2024-03-08T02:07:33;11.82;;;8.13;;
13712;SDS011;6928;50.546;7.120;2024-03-08T02:10:01;13.27;;;7.25;;
13712;SDS011;6928;50.546;7.120;2024-03-08T02:12:28;11.55;;;7.43;;
13712;SDS011;6928;50.546;7.120;2024-03-08T02:14:54;11.48;;;7.18;;
13712;SDS011;6928;50.546;7.120;2024-03-08T02:17:21;15.25;;;7.82;;
13712;SDS011;6928;50.546;7.120;2024-03-08T02:19:49;12.90;;;7.80;;
13712;SDS011;6928;50.546;7.120;2024-03-08T02:22:17;13.32;;;8.18;;
13712;SDS011;6928;50.546;7.120;2024-03-08T02:24:45;13.52;;;7.65;;
13712;SDS011;6928;50.546;7.120;2024-03-08T02:27:12;11.02;;;7.28;;
13712;SDS011;6928;50.546;7.120;2024-03-08T02:29:39;14.82;;;7.65;;
13712;SDS011;6928;50.546;7.120;2024-03-08T02:32:09;11.48;;;7.40;;
13712;SDS011;6928;50.546;7.120;2024-03-08T02:34:36;12.15;;;7.32;;
13712;SDS011;6928;50.546;7.120;2024-03-08T02:37:02;8.10;;;6.30;;
13712;SDS011;6928;50.546;7.120;2024-03-08T02:39:31;19.27;;;7.20;;
13712;SDS011;6928;50.546;7.120;2024-03-08T02:41:58;11.75;;;6.97;;
13712;SDS011;6928;50.546;7.120;2024-03-08T02:44:24;10.80;;;6.70;;
13712;SDS011;6928;50.546;7.120;2024-03-08T02:46:51;13.05;;;8.20;;
13712;SDS011;6928;50.546;7.120;2024-03-08T02:49:20;10.80;;;6.72;;
13712;SDS011;6928;50.546;7.120;2024-03-08T02:51:47;13.05;;;8.07;;
13712;SDS011;6928;50.546;7.120;2024-03-08T02:54:13;13.10;;;6.85;;
13712;SDS011;6928;50.546;7.120;2024-03-08T02:56:43;12.95;;;6.80;;
13712;SDS011;6928;50.546;7.120;2024-03-08T02:59:11;15.68;;;6.85;;
13712;SDS011;6928;50.546;7.120;2024-03-08T03:01:38;12.18;;;7.68;;
13712;SDS011;6928;50.546;7.120;2024-03-08T03:04:06;12.43;;;6.63;;
13712;SDS011;6928;50.546;7.120;2024-03-08T03:06:33;12.80;;;7.32;;
13712;SDS011;6928;50.546;7.120;2024-03-08T03:09:00;16.10;;;7.35;;
13712;SDS011;6928;50.546;7.120;2024-03-08T03:11:27;14.02;;;7.43;;
13712;SDS011;6928;50.546;7.120;2024-03-08T03:13:55;9.18;;;6.25;;
13712;SDS011;6928;50.546;7.120;2024-03-08T03:16:22;11.32;;;7.07;;
13712;SDS011;6928;50.546;7.120;2024-03-08T03:18:49;15.90;;;7.65;;
13712;SDS011;6928;50.546;7.120;2024-03-08T03:21:16;8.88;;;6.15;;
13712;SDS011;6928;50.546;7.120;2024-03-08T03:23:42;12.77;;;6.45;;
13712;SDS011;6928;50.546;7.120;2024-03-08T03:26:09;11.60;;;7.15;;
13712;SDS011;6928;50.546;7.120;2024-03-08T03:28:37;14.50;;;7.30;;
13712;SDS011;6928;50.546;7.120;2024-03-08T03:31:06;11.88;;;7.15;;
13712;SDS011;6928;50.546;7.120;2024-03-08T03:33:33;12.32;;;7.15;;
13712;SDS011;6928;50.546;7.120;2024-03-08T03:36:02;15.05;;;7.07;;
13712;SDS011;6928;50.546;7.120;2024-03-08T03:38:30;12.23;;;7.43;;
13712;SDS011;6928;50.546;7.120;2024-03-08T03:40:57;11.90;;;7.35;;
13712;SDS011;6928;50.546;7.120;2024-03-08T03:43:29;9.85;;;7.10;;
13712;SDS011;6928;50.546;7.120;2024-03-08T03:45:56;15.00;;;7.55;;
13712;SDS011;6928;50.546;7.120;2024-03-08T03:48:24;20.05;;;8.10;;
13712;SDS011;6928;50.546;7.120;2024-03-08T03:50:51;21.13;;;7.68;;
13712;SDS011;6928;50.546;7.120;2024-03-08T03:53:18;13.95;;;6.95;;
13712;SDS011;6928;50.546;7.120;2024-03-08T03:55:44;12.95;;;7.18;;
13712;SDS011;6928;50.546;7.120;2024-03-08T03:58:14;16.02;;;7.47;;
13712;SDS011;6928;50.546;7.120;2024-03-08T04:00:47;11.27;;;7.57;;
13712;SDS011;6928;50.546;7.120;2024-03-08T04:03:14;13.07;;;7.00;;
13712;SDS011;6928;50.546;7.120;2024-03-08T04:05:43;13.35;;;7.57;;
13712;SDS011;6928;50.546;7.120;2024-03-08T04:08:10;12.73;;;7.40;;
13712;SDS011;6928;50.546;7.120;2024-03-08T04:10:37;12.32;;;7.43;;
13712;SDS011;6928;50.546;7.120;2024-03-08T04:13:03;12.07;;;6.90;;
13712;SDS011;6928;50.546;7.120;2024-03-08T04:15:30;10.63;;;7.43;;
13712;SDS011;6928;50.546;7.120;2024-03-08T04:17:57;10.18;;;6.05;;
13712;SDS011;6928;50.546;7.120;2024-03-08T04:20:25;9.90;;;6.55;;
13712;SDS011;6928;50.546;7.120;2024-03-08T04:22:53;10.82;;;7.50;;
13712;SDS011;6928;50.546;7.120;2024-03-08T04:25:21;9.10;;;6.82;;
13712;SDS011;6928;50.546;7.120;2024-03-08T04:27:48;13.90;;;7.50;;
13712;SDS011;6928;50.546;7.120;2024-03-08T04:30:15;10.18;;;6.68;;
13712;SDS011;6928;50.546;7.120;2024-03-08T04:32:41;16.13;;;8.00;;
13712;SDS011;6928;50.546;7.120;2024-03-08T04:35:08;14.85;;;8.32;;
13712;SDS011;6928;50.546;7.120;2024-03-08T04:37:37;12.63;;;7.40;;
13712;SDS011;6928;50.546;7.120;2024-03-08T04:40:06;12.98;;;7.88;;
13712;SDS011;6928;50.546;7.120;2024-03-08T04:42:33;14.57;;;7.35;;
13712;SDS011;6928;50.546;7.120;2024-03-08T04:45:03;14.25;;;7.50;;
13712;SDS011;6928;50.546;7.120;2024-03-08T04:47:33;13.57;;;7.35;;
13712;SDS011;6928;50.546;7.120;2024-03-08T04:50:02;15.48;;;7.15;;
13712;SDS011;6928;50.546;7.120;2024-03-08T04:52:29;22.92;;;7.88;;
13712;SDS011;6928;50.546;7.120;2024-03-08T04:54:56;14.60;;;7.82;;
13712;SDS011;6928;50.546;7.120;2024-03-08T04:57:24;13.38;;;8.18;;
13712;SDS011;6928;50.546;7.120;2024-03-08T04:59:51;14.63;;;7.47;;
13712;SDS011;6928;50.546;7.120;2024-03-08T05:02:18;12.27;;;7.50;;
13712;SDS011;6928;50.546;7.120;2024-03-08T05:04:47;15.02;;;7.25;;
13712;SDS011;6928;50.546;7.120;2024-03-08T05:07:14;11.82;;;7.05;;
13712;SDS011;6928;50.546;7.120;2024-03-08T05:09:41;8.70;;;6.10;;
13712;SDS011;6928;50.546;7.120;2024-03-08T05:12:08;11.95;;;7.10;;
13712;SDS011;6928;50.546;7.120;2024-03-08T05:14:36;12.15;;;7.68;;
13712;SDS011;6928;50.546;7.120;2024-03-08T05:17:03;13.40;;;7.35;;
13712;SDS011;6928;50.546;7.120;2024-03-08T05:19:32;10.07;;;6.03;;
13712;SDS011;6928;50.546;7.120;2024-03-08T05:21:58;15.52;;;8.23;;
13712;SDS011;6928;50.546;7.120;2024-03-08T05:24:25;13.18;;;7.53;;
13712;SDS011;6928;50.546;7.120;2024-03-08T05:26:52;12.65;;;6.95;;
13712;SDS011;6928;50.546;7.120;2024-03-08T05:29:19;16.10;;;7.78;;
13712;SDS011;6928;50.546;7.120;2024-03-08T05:31:47;16.75;;;7.47;;
13712;SDS011;6928;50.546;7.120;2024-03-08T05:34:17;12.85;;;6.68;;
13712;SDS011;6928;50.546;7.120;2024-03-08T05:36:46;12.85;;;6.85;;
13712;SDS011;6928;50.546;7.120;2024-03-08T05:39:14;16.40;;;7.32;;
13712;SDS011;6928;50.546;7.120;2024-03-08T05:41:42;12.48;;;7.20;;
13712;SDS011;6928;50.546;7.120;2024-03-08T05:44:10;18.67;;;7.90;;
13712;SDS011;6928;50.546;7.120;2024-03-08T05:46:38;16.15;;;8.25;;
13712;SDS011;6928;50.546;7.120;2024-03-08T05:49:07;16.85;;;7.63;;
13712;SDS011;6928;50.546;7.120;2024-03-08T05:51:35;13.30;;;7.60;;
13712;SDS011;6928;50.546;7.120;2024-03-08T05:54:05;10.93;;;7.10;;
13712;SDS011;6928;50.546;7.120;2024-03-08T05:56:34;12.88;;;6.88;;
13712;SDS011;6928;50.546;7.120;2024-03-08T05:59:01;17.92;;;7.53;;
13712;SDS011;6928;50.546;7.120;2024-03-08T06:01:31;12.85;;;7.57;;
13712;SDS011;6928;50.546;7.120;2024-03-08T06:04:01;14.98;;;7.97;;
13712;SDS011;6928;50.546;7.120;2024-03-08T06:06:30;19.48;;;8.18;;
13712;SDS011;6928;50.546;7.120;2024-03-08T06:08:57;12.57;;;7.57;;
13712;SDS011;6928;50.546;7.120;2024-03-08T06:11:24;16.83;;;6.90;;
13712;SDS011;6928;50.546;7.120;2024-03-08T06:13:53;14.25;;;8.13;;
13712;SDS011;6928;50.546;7.120;2024-03-08T06:16:24;18.20;;;8.43;;
13712;SDS011;6928;50.546;7.120;2024-03-08T06:18:54;17.83;;;9.00;;
13712;SDS011;6928;50.546;7.120;2024-03-08T06:21:22;24.83;;;9.90;;
13712;SDS011;6928;50.546;7.120;2024-03-08T06:23:52;16.75;;;8.27;;
13712;SDS011;6928;50.546;7.120;2024-03-08T06:26:20;21.15;;;8.38;;
13712;SDS011;6928;50.546;7.120;2024-03-08T06:28:47;14.23;;;7.43;;
13712;SDS011;6928;50.546;7.120;2024-03-08T06:31:15;16.98;;;7.95;;
13712;SDS011;6928;50.546;7.120;2024-03-08T06:33:42;20.25;;;7.95;;
13712;SDS011;6928;50.546;7.120;2024-03-08T06:36:10;14.73;;;8.23;;
13712;SDS011;6928;50.546;7.120;2024-03-08T06:38:38;13.32;;;7.70;;
13712;SDS011;6928;50.546;7.120;2024-03-08T06:41:08;15.18;;;7.80;;
13712;SDS011;6928;50.546;7.120;2024-03-08T06:43:40;16.67;;;8.48;;
13712;SDS011;6928;50.546;7.120;2024-03-08T06:46:08;13.98;;;8.07;;
13712;SDS011;6928;50.546;7.120;2024-03-08T06:48:35;21.05;;;9.07;;
13712;SDS011;6928;50.546;7.120;2024-03-08T06:51:02;14.52;;;8.13;;
13712;SDS011;6928;50.546;7.120;2024-03-08T06:53:30;22.27;;;8.90;;
13712;SDS011;6928;50.546;7.120;2024-03-08T06:55:57;18.23;;;9.43;;
13712;SDS011;6928;50.546;7.120;2024-03-08T06:58:25;20.88;;;9.70;;
13712;SDS011;6928;50.546;7.120;2024-03-08T07:00:52;23.63;;;10.57;;
13712;SDS011;6928;50.546;7.120;2024-03-08T07:03:23;16.33;;;9.27;;
13712;SDS011;6928;50.546;7.120;2024-03-08T07:05:51;25.02;;;9.45;;
13712;SDS011;6928;50.546;7.120;2024-03-08T07:08:19;19.15;;;9.25;;
13712;SDS011;6928;50.546;7.120;2024-03-08T07:10:47;17.95;;;9.15;;
13712;SDS011;6928;50.546;7.120;2024-03-08T07:13:14;19.13;;;9.82;;
13712;SDS011;6928;50.546;7.120;2024-03-08T07:15:43;20.90;;;9.90;;
13712;SDS011;6928;50.546;7.120;2024-03-08T07:18:10;17.55;;;9.05;;
13712;SDS011;6928;50.546;7.120;2024-03-08T07:20:39;18.52;;;9.93;;
13712;SDS011;6928;50.546;7.120;2024-03-08T07:23:07;16.50;;;8.85;;
13712;SDS011;6928;50.546;7.120;2024-03-08T07:25:35;15.00;;;8.75;;
13712;SDS011;6928;50.546;7.120;2024-03-08T07:28:04;20.45;;;9.88;;
13712;SDS011;6928;50.546;7.120;2024-03-08T07:30:32;16.17;;;8.82;;
13712;SDS011;6928;50.546;7.120;2024-03-08T07:33:23;20.40;;;8.07;;
13712;SDS011;6928;50.546;7.120;2024-03-08T07:35:50;23.50;;;10.32;;
13712;SDS011;6928;50.546;7.120;2024-03-08T07:38:17;30.20;;;9.70;;
13712;SDS011;6928;50.546;7.120;2024-03-08T07:40:46;27.48;;;10.90;;
13712;SDS011;6928;50.546;7.120;2024-03-08T07:43:13;20.13;;;9.80;;
13712;SDS011;6928;50.546;7.120;2024-03-08T07:45:40;16.05;;;9.07;;
13712;SDS011;6928;50.546;7.120;2024-03-08T07:48:07;20.55;;;8.80;;
13712;SDS011;6928;50.546;7.120;2024-03-08T07:50:37;19.27;;;9.90;;
13712;SDS011;6928;50.546;7.120;2024-03-08T07:53:04;18.23;;;9.30;;
13712;SDS011;6928;50.546;7.120;2024-03-08T07:55:32;20.25;;;10.57;;
13712;SDS011;6928;50.546;7.120;2024-03-08T07:58:00;20.25;;;10.32;;
13712;SDS011;6928;50.546;7.120;2024-03-08T08:00:28;15.63;;;8.70;;
13712;SDS011;6928;50.546;7.120;2024-03-08T08:02:56;19.85;;;9.68;;
13712;SDS011;6928;50.546;7.120;2024-03-08T08:05:23;17.25;;;10.13;;
13712;SDS011;6928;50.546;7.120;2024-03-08T08:07:52;14.85;;;8.85;;
13712;SDS011;6928;50.546;7.120;2024-03-08T08:10:19;18.45;;;10.07;;
13712;SDS011;6928;50.546;7.120;2024-03-08T08:12:47;18.50;;;9.35;;
13712;SDS011;6928;50.546;7.120;2024-03-08T08:15:15;16.63;;;8.60;;
13712;SDS011;6928;50.546;7.120;2024-03-08T08:17:42;19.20;;;9.98;;
13712;SDS011;6928;50.546;7.120;2024-03-08T08:20:10;18.33;;;9.77;;
13712;SDS011;6928;50.546;7.120;2024-03-08T08:22:38;20.33;;;9.32;;
13712;SDS011;6928;50.546;7.120;2024-03-08T08:25:07;15.77;;;8.70;;
13712;SDS011;6928;50.546;7.120;2024-03-08T08:27:34;18.85;;;9.48;;
13712;SDS011;6928;50.546;7.120;2024-03-08T08:30:01;18.40;;;9.13;;
13712;SDS011;6928;50.546;7.120;2024-03-08T08:32:33;16.70;;;9.70;;
13712;SDS011;6928;50.546;7.120;2024-03-08T08:35:00;16.33;;;8.73;;
13712;SDS011;6928;50.546;7.120;2024-03-08T08:37:27;17.48;;;9.73;;
13712;SDS011;6928;50.546;7.120;2024-03-08T08:39:54;16.25;;;8.35;;
13712;SDS011;6928;50.546;7.120;2024-03-08T08:42:32;19.13;;;10.70;;
13712;SDS011;6928;50.546;7.120;2024-03-08T08:44:58;16.48;;;9.05;;
13712;SDS011;6928;50.546;7.120;2024-03-08T08:47:26;15.93;;;9.50;;
13712;SDS011;6928;50.546;7.120;2024-03-08T08:49:53;13.73;;;7.72;;
13712;SDS011;6928;50.546;7.120;2024-03-08T08:52:20;19.85;;;10.88;;
13712;SDS011;6928;50.546;7.120;2024-03-08T08:54:48;16.20;;;9.20;;
13712;SDS011;6928;50.546;7.120;2024-03-08T08:57:15;15.23;;;9.48;;
13712;SDS011;6928;50.546;7.120;2024-03-08T08:59:43;16.73;;;10.05;;
13712;SDS011;6928;50.546;7.120;2024-03-08T09:02:10;17.35;;;10.27;;
13712;SDS011;6928;50.546;7.120;2024-03-08T09:04:37;15.80;;;9.20;;
13712;SDS011;6928;50.546;7.120;2024-03-08T09:07:04;16.63;;;9.02;;
13712;SDS011;6928;50.546;7.120;2024-03-08T09:09:32;13.00;;;8.65;;
13712;SDS011;6928;50.546;7.120;2024-03-08T09:11:59;20.15;;;10.10;;
13712;SDS011;6928;50.546;7.120;2024-03-08T09:14:26;16.05;;;10.10;;
13712;SDS011;6928;50.546;7.120;2024-03-08T09:16:55;14.27;;;8.63;;
13712;SDS011;6928;50.546;7.120;2024-03-08T09:19:21;24.60;;;8.75;;
13712;SDS011;6928;50.546;7.120;2024-03-08T09:21:50;16.55;;;8.68;;
13712;SDS011;6928;50.546;7.120;2024-03-08T09:24:17;19.23;;;10.32;;
13712;SDS011;6928;50.546;7.120;2024-03-08T09:26:44;14.20;;;9.07;;
13712;SDS011;6928;50.546;7.120;2024-03-08T09:29:11;17.25;;;9.77;;
13712;SDS011;6928;50.546;7.120;2024-03-08T09:31:37;13.73;;;8.13;;
13712;SDS011;6928;50.546;7.120;2024-03-08T09:34:06;10.65;;;6.78;;
13712;SDS011;6928;50.546;7.120;2024-03-08T09:36:33;16.55;;;8.05;;
13712;SDS011;6928;50.546;7.120;2024-03-08T09:39:00;14.70;;;7.75;;
13712;SDS011;6928;50.546;7.120;2024-03-08T09:41:27;16.88;;;8.43;;
13712;SDS011;6928;50.546;7.120;2024-03-08T09:43:56;13.85;;;8.90;;
13712;SDS011;6928;50.546;7.120;2024-03-08T09:46:24;15.77;;;8.55;;
13712;SDS011;6928;50.546;7.120;2024-03-08T09:48:52;14.98;;;10.35;;
13712;SDS011;6928;50.546;7.120;2024-03-08T09:51:22;13.13;;;8.20;;
13712;SDS011;6928;50.546;7.120;2024-03-08T09:53:54;18.15;;;9.02;;
13712;SDS011;6928;50.546;7.120;2024-03-08T09:56:23;15.43;;;9.60;;
13712;SDS011;6928;50.546;7.120;2024-03-08T09:58:50;18.73;;;9.25;;
13712;SDS011;6928;50.546;7.120;2024-03-08T10:01:39;16.85;;;8.73;;
13712;SDS011;6928;50.546;7.120;2024-03-08T10:04:06;16.23;;;9.00;;
13712;SDS011;6928;50.546;7.120;2024-03-08T10:06:36;13.73;;;8.55;;
13712;SDS011;6928;50.546;7.120;2024-03-08T10:09:03;15.68;;;9.25;;
13712;SDS011;6928;50.546;7.120;2024-03-08T10:11:32;16.80;;;8.30;;
13712;SDS011;6928;50.546;7.120;2024-03-08T10:14:00;15.20;;;9.23;;
13712;SDS011;6928;50.546;7.120;2024-03-08T10:16:27;14.90;;;8.75;;
13712;SDS011;6928;50.546;7.120;2024-03-08T10:18:55;14.20;;;9.45;;
13712;SDS011;6928;50.546;7.120;2024-03-08T10:21:23;13.88;;;8.40;;
13712;SDS011;6928;50.546;7.120;2024-03-08T10:23:52;14.02;;;8.95;;
13712;SDS011;6928;50.546;7.120;2024-03-08T10:26:18;14.43;;;9.32;;
13712;SDS011;6928;50.546;7.120;2024-03-08T10:28:47;17.40;;;9.18;;
13712;SDS011;6928;50.546;7.120;2024-03-08T10:31:18;14.32;;;8.55;;
13712;SDS011;6928;50.546;7.120;2024-03-08T10:33:46;12.60;;;8.13;;
13712;SDS011;6928;50.546;7.120;2024-03-08T10:36:14;16.23;;;9.40;;
13712;SDS011;6928;50.546;7.120;2024-03-08T10:38:42;14.30;;;8.55;;
13712;SDS011;6928;50.546;7.120;2024-03-08T10:41:13;12.48;;;9.00;;
13712;SDS011;6928;50.546;7.120;2024-03-08T10:43:46;13.02;;;8.05;;
13712;SDS011;6928;50.546;7.120;2024-03-08T10:46:42;14.15;;;8.82;;
13712;SDS011;6928;50.546;7.120;2024-03-08T10:49:25;14.07;;;7.53;;
13712;SDS011;6928;50.546;7.120;2024-03-08T10:51:59;10.90;;;7.43;;
13712;SDS011;6928;50.546;7.120;2024-03-08T10:54:29;15.02;;;8.70;;
13712;SDS011;6928;50.546;7.120;2024-03-08T10:56:59;13.63;;;8.88;;
13712;SDS011;6928;50.546;7.120;2024-03-08T10:59:30;13.02;;;8.48;;
13712;SDS011;6928;50.546;7.120;2024-03-08T11:02:00;12.98;;;8.45;;
13712;SDS011;6928;50.546;7.120;2024-03-08T11:04:30;14.50;;;8.18;;
13712;SDS011;6928;50.546;7.120;2024-03-08T11:07:00;13.80;;;8.02;;
13712;SDS011;6928;50.546;7.120;2024-03-08T11:09:31;12.35;;;7.68;;
13712;SDS011;6928;50.546;7.120;2024-03-08T11:12:22;11.73;;;8.40;;
13712;SDS011;6928;50.546;7.120;2024-03-08T11:14:54;12.07;;;8.30;;
13712;SDS011;6928;50.546;7.120;2024-03-08T11:17:25;15.32;;;6.55;;
13712;SDS011;6928;50.546;7.120;2024-03-08T11:20:14;12.30;;;7.18;;
13712;SDS011;6928;50.546;7.120;2024-03-08T11:22:47;12.30;;;7.20;;
13712;SDS011;6928;50.546;7.120;2024-03-08T11:25:30;10.77;;;6.75;;
13712;SDS011;6928;50.546;7.120;2024-03-08T11:28:16;11.23;;;7.28;;
13712;SDS011;6928;50.546;7.120;2024-03-08T11:30:45;9.52;;;6.55;;
13712;SDS011;6928;50.546;7.120;2024-03-08T11:33:16;9.98;;;6.93;;
13712;SDS011;6928;50.546;7.120;2024-03-08T11:35:43;8.85;;;5.97;;
13712;SDS011;6928;50.546;7.120;2024-03-08T11:38:11;8.07;;;5.78;;
13712;SDS011;6928;50.546;7.120;2024-03-08T11:40:39;15.88;;;5.82;;
13712;SDS011;6928;50.546;7.120;2024-03-08T11:43:07;9.00;;;6.30;;
13712;SDS011;6928;50.546;7.120;2024-03-08T11:45:35;7.88;;;5.80;;
13712;SDS011;6928;50.546;7.120;2024-03-08T11:48:02;8.70;;;6.30;;
13712;SDS011;6928;50.546;7.120;2024-03-08T11:50:30;10.18;;;6.25;;
13712;SDS011;6928;50.546;7.120;2024-03-08T11:53:01;10.45;;;5.07;;
13712;SDS011;6928;50.546;7.120;2024-03-08T11:55:29;7.82;;;5.38;;
13712;SDS011;6928;50.546;7.120;2024-03-08T11:58:01;7.47;;;5.97;;
13712;SDS011;6928;50.546;7.120;2024-03-08T12:00:29;8.10;;;5.88;;
13712;SDS011;6928;50.546;7.120;2024-03-08T12:03:05;7.70;;;5.45;;
13712;SDS011;6928;50.546;7.120;2024-03-08T12:05:34;13.40;;;6.10;;
13712;SDS011;6928;50.546;7.120;2024-03-08T12:08:03;7.65;;;5.80;;
13712;SDS011;6928;50.546;7.120;2024-03-08T12:10:32;8.82;;;6.00;;
13712;SDS011;6928;50.546;7.120;2024-03-08T12:13:00;6.93;;;5.47;;
13712;SDS011;6928;50.546;7.120;2024-03-08T12:15:28;9.90;;;5.75;;
13712;SDS011;6928;50.546;7.120;2024-03-08T12:17:58;7.28;;;5.55;;
13712;SDS011;6928;50.546;7.120;2024-03-08T12:20:27;9.70;;;5.68;;
13712;SDS011;6928;50.546;7.120;2024-03-08T12:22:56;10.30;;;6.57;;
13712;SDS011;6928;50.546;7.120;2024-03-08T12:25:25;7.45;;;6.03;;
13712;SDS011;6928;50.546;7.120;2024-03-08T12:27:54;9.43;;;5.50;;
13712;SDS011;6928;50.546;7.120;2024-03-08T12:30:22;8.73;;;6.35;;
13712;SDS011;6928;50.546;7.120;2024-03-08T12:32:53;12.75;;;6.30;;
13712;SDS011;6928;50.546;7.120;2024-03-08T12:35:22;10.55;;;6.47;;
13712;SDS011;6928;50.546;7.120;2024-03-08T12:37:53;8.93;;;5.82;;
13712;SDS011;6928;50.546;7.120;2024-03-08T12:40:25;8.60;;;6.03;;
13712;SDS011;6928;50.546;7.120;2024-03-08T12:42:53;8.60;;;5.93;;
13712;SDS011;6928;50.546;7.120;2024-03-08T12:45:21;7.47;;;5.85;;
13712;SDS011;6928;50.546;7.120;2024-03-08T12:47:49;8.43;;;5.70;;
13712;SDS011;6928;50.546;7.120;2024-03-08T12:50:16;9.07;;;6.22;;
13712;SDS011;6928;50.546;7.120;2024-03-08T12:52:43;7.47;;;5.90;;
13712;SDS011;6928;50.546;7.120;2024-03-08T12:55:11;7.97;;;6.25;;
13712;SDS011;6928;50.546;7.120;2024-03-08T12:57:38;9.50;;;5.97;;
13712;SDS011;6928;50.546;7.120;2024-03-08T13:00:06;8.75;;;5.75;;
13712;SDS011;6928;50.546;7.120;2024-03-08T13:02:38;9.60;;;5.88;;
13712;SDS011;6928;50.546;7.120;2024-03-08T13:05:07;9.93;;;7.30;;
13712;SDS011;6928;50.546;7.120;2024-03-08T13:07:35;11.50;;;7.15;;
13712;SDS011;6928;50.546;7.120;2024-03-08T13:10:03;9.48;;;6.78;;
13712;SDS011;6928;50.546;7.120;2024-03-08T13:12:33;11.57;;;7.10;;
13712;SDS011;6928;50.546;7.120;2024-03-08T13:15:03;8.57;;;6.78;;
13712;SDS011;6928;50.546;7.120;2024-03-08T13:17:31;8.93;;;6.20;;
13712;SDS011;6928;50.546;7.120;2024-03-08T13:19:58;13.02;;;6.50;;
13712;SDS011;6928;50.546;7.120;2024-03-08T13:22:25;13.05;;;7.13;;
13712;SDS011;6928;50.546;7.120;2024-03-08T13:24:53;21.48;;;8.02;;
13712;SDS011;6928;50.546;7.120;2024-03-08T13:27:19;17.02;;;5.88;;
13712;SDS011;6928;50.546;7.120;2024-03-08T13:29:48;8.82;;;6.43;;
13712;SDS011;6928;50.546;7.120;2024-03-08T13:32:15;13.65;;;6.38;;
13712;SDS011;6928;50.546;7.120;2024-03-08T13:34:45;11.18;;;6.32;;
13712;SDS011;6928;50.546;7.120;2024-03-08T13:37:16;10.75;;;6.25;;
13712;SDS011;6928;50.546;7.120;2024-03-08T13:39:43;8.50;;;6.60;;
13712;SDS011;6928;50.546;7.120;2024-03-08T13:42:10;7.85;;;6.07;;
13712;SDS011;6928;50.546;7.120;2024-03-08T13:44:38;10.93;;;6.82;;
13712;SDS011;6928;50.546;7.120;2024-03-08T13:47:10;10.07;;;6.88;;
13712;SDS011;6928;50.546;7.120;2024-03-08T13:49:38;10.57;;;7.05;;
13712;SDS011;6928;50.546;7.120;2024-03-08T13:52:05;8.43;;;6.40;;
13712;SDS011;6928;50.546;7.120;2024-03-08T13:54:34;8.95;;;6.88;;
13712;SDS011;6928;50.546;7.120;2024-03-08T13:57:01;9.07;;;6.40;;
13712;SDS011;6928;50.546;7.120;2024-03-08T13:59:29;8.93;;;7.15;;
13712;SDS011;6928;50.546;7.120;2024-03-08T14:01:57;10.52;;;7.55;;
13712;SDS011;6928;50.546;7.120;2024-03-08T14:04:27;15.13;;;7.38;;
13712;SDS011;6928;50.546;7.120;2024-03-08T14:06:54;9.85;;;7.05;;
13712;SDS011;6928;50.546;7.120;2024-03-08T14:09:26;10.60;;;7.05;;
13712;SDS011;6928;50.546;7.120;2024-03-08T14:11:54;8.07;;;6.28;;
13712;SDS011;6928;50.546;7.120;2024-03-08T14:14:21;11.15;;;7.53;;
13712;SDS011;6928;50.546;7.120;2024-03-08T14:16:48;8.02;;;6.22;;
13712;SDS011;6928;50.546;7.120;2024-03-08T14:19:17;8.88;;;6.90;;
13712;SDS011;6928;50.546;7.120;2024-03-08T14:21:46;10.57;;;6.53;;
13712;SDS011;6928;50.546;7.120;2024-03-08T14:24:14;11.05;;;6.97;;
13712;SDS011;6928;50.546;7.120;2024-03-08T14:26:41;10.63;;;6.95;;
13712;SDS011;6928;50.546;7.120;2024-03-08T14:29:08;9.38;;;6.20;;
13712;SDS011;6928;50.546;7.120;2024-03-08T14:31:36;8.70;;;7.28;;
13712;SDS011;6928;50.546;7.120;2024-03-08T14:34:03;10.30;;;7.18;;
13712;SDS011;6928;50.546;7.120;2024-03-08T14:36:30;11.27;;;7.85;;
13712;SDS011;6928;50.546;7.120;2024-03-08T14:38:58;8.75;;;6.43;;
13712;SDS011;6928;50.546;7.120;2024-03-08T14:41:25;9.48;;;6.47;;
13712;SDS011;6928;50.546;7.120;2024-03-08T14:43:52;10.75;;;7.18;;
13712;SDS011;6928;50.546;7.120;2024-03-08T14:46:19;12.10;;;7.35;;
13712;SDS011;6928;50.546;7.120;2024-03-08T14:48:48;12.55;;;6.55;;
13712;SDS011;6928;50.546;7.120;2024-03-08T14:51:16;11.38;;;6.97;;
13712;SDS011;6928;50.546;7.120;2024-03-08T14:53:46;13.38;;;7.18;;
13712;SDS011;6928;50.546;7.120;2024-03-08T14:56:14;10.80;;;6.65;;
13712;SDS011;6928;50.546;7.120;2024-03-08T14:58:42;8.95;;;6.93;;